Time,TemperatureF,DewpointF,PressureIn,WindDirection,WindDirectionDegrees,WindSpeedMPH,WindSpeedGustMPH,Humidity,HourlyPrecipIn,Conditions,Clouds,dailyrainin,SoftwareType,DateUTC
2013-02-15 00:00:00,34.4,32.3,30.18,WSW,239,0.0,0.0,92,0.00,CLR,,0.00,WeatherDisplay:10.37,2013-02-15 06:00:00,
2013-02-15 00:05:00,34.3,32.2,30.18,WSW,239,0.0,0.0,92,0.00,CLR,,0.00,WeatherDisplay:10.37,2013-02-15 06:05:00,
2013-02-15 00:10:00,34.1,32.0,30.18,WSW,239,0.0,0.0,92,0.00,CLR,,0.00,WeatherDisplay:10.37,2013-02-15 06:10:00,
2013-02-15 00:15:00,34.1,32.0,30.18,WSW,239,0.0,0.0,92,0.00,CLR,,0.00,WeatherDisplay:10.37,2013-02-15 06:15:00,
2013-02-15 00:20:00,34.0,31.9,30.18,WSW,239,0.0,0.0,92,0.00,CLR,,0.00,WeatherDisplay:10.37,2013-02-15 06:20:00,
2013-02-15 00:25:00,33.8,31.7,30.18,WSW,239,0.0,0.0,92,0.00,CLR,,0.00,WeatherDisplay:10.37,2013-02-15 06:25:00,
2013-02-15 00:30:00,33.8,31.7,30.18,WSW,239,0.0,0.0,92,0.00,CLR,,0.00,WeatherDisplay:10.37,2013-02-15 06:30:00,
2013-02-15 00:35:00,33.7,31.6,30.18,WSW,239,0.0,0.0,92,0.00,CLR,,0.00,WeatherDisplay:10.37,2013-02-15 06:35:00,
2013-02-15 00:40:00,33.5,31.4,30.18,WSW,239,0.0,0.0,92,0.00,CLR,,0.00,WeatherDisplay:10.37,2013-02-15 06:40:00,
2013-02-15 00:45:00,33.5,31.4,30.18,WSW,239,0.0,0.0,92,0.00,CLR,,0.00,WeatherDisplay:10.37,2013-02-15 06:45:00,
2013-02-15 00:50:00,33.4,31.3,30.18,WSW,239,0.0,0.0,92,0.00,CLR,,0.00,WeatherDisplay:10.37,2013-02-15 06:50:00,
2013-02-15 00:55:00,33.2,31.1,30.18,WSW,239,0.0,0.0,92,0.00,CLR,,0.00,WeatherDisplay:10.37,2013-02-15 06:55:00,
2013-02-15 01:00:00,33.2,31.4,30.18,WSW,239,0.0,0.0,93,0.00,CLR,,0.00,WeatherDisplay:10.37,2013-02-15 07:00:00,
2013-02-15 01:05:00,33.1,31.3,30.18,WSW,239,0.0,0.0,93,0.00,CLR,,0.00,WeatherDisplay:10.37,2013-02-15 07:05:00,
2013-02-15 01:10:00,33.1,31.3,30.18,WSW,239,0.0,0.0,93,0.00,CLR,,0.00,WeatherDisplay:10.37,2013-02-15 07:10:00,
2013-02-15 01:15:00,33.1,31.3,30.18,WSW,239,0.0,0.0,93,0.00,CLR,,0.00,WeatherDisplay:10.37,2013-02-15 07:15:00,
2013-02-15 01:20:00,33.1,31.3,30.18,WSW,239,0.0,0.0,93,0.00,CLR,,0.00,WeatherDisplay:10.37,2013-02-15 07:20:00,
2013-02-15 01:25:00,32.9,31.1,30.18,WSW,239,0.0,0.0,93,0.00,CLR,,0.00,WeatherDisplay:10.37,2013-02-15 07:25:00,
2013-02-15 01:30:00,32.8,31.0,30.18,WSW,239,0.0,0.0,93,0.00,CLR,,0.00,WeatherDisplay:10.37,2013-02-15 07:30:00,
2013-02-15 01:35:00,32.7,30.9,30.18,WSW,239,0.0,0.0,93,0.00,CLR,,0.00,WeatherDisplay:10.37,2013-02-15 07:35:00,
2013-02-15 01:40:00,32.5,30.7,30.18,WSW,239,0.0,0.0,93,0.00,CLR,,0.00,WeatherDisplay:10.37,2013-02-15 07:40:00,
2013-02-15 01:45:00,32.4,30.6,30.19,WSW,239,0.0,0.0,93,0.00,CLR,,0.00,WeatherDisplay:10.37,2013-02-15 07:45:00,
2013-02-15 01:50:00,32.2,30.4,30.19,WSW,239,0.0,0.0,93,0.00,CLR,,0.00,WeatherDisplay:10.37,2013-02-15 07:50:00,
2013-02-15 01:55:00,32.1,30.3,30.19,WSW,239,0.0,0.0,93,0.00,CLR,,0.00,WeatherDisplay:10.37,2013-02-15 07:55:00,
2013-02-15 02:00:00,32.1,30.3,30.19,WSW,239,0.0,0.0,93,0.00,CLR,,0.00,WeatherDisplay:10.37,2013-02-15 08:00:00,
2013-02-15 02:05:00,31.9,30.1,30.18,WSW,239,0.0,0.0,93,0.00,CLR,,0.00,WeatherDisplay:10.37,2013-02-15 08:05:00,
2013-02-15 02:10:00,31.9,30.1,30.18,WSW,239,0.0,0.0,93,0.00,CLR,,0.00,WeatherDisplay:10.37,2013-02-15 08:10:00,
2013-02-15 02:15:00,32.1,30.3,30.18,WSW,239,0.0,0.0,93,0.00,CLR,,0.00,WeatherDisplay:10.37,2013-02-15 08:15:00,
2013-02-15 02:20:00,32.1,30.3,30.18,WSW,239,0.0,0.0,93,0.00,CLR,,0.00,WeatherDisplay:10.37,2013-02-15 08:20:00,
2013-02-15 02:25:00,31.9,30.1,30.19,WSW,239,0.0,0.0,93,0.00,CLR,,0.00,WeatherDisplay:10.37,2013-02-15 08:25:00,
2013-02-15 02:30:00,31.8,30.0,30.19,WSW,239,0.0,0.0,93,0.00,CLR,,0.00,WeatherDisplay:10.37,2013-02-15 08:30:00,
2013-02-15 02:35:00,31.6,29.8,30.19,WSW,239,0.0,0.0,93,0.00,CLR,,0.00,WeatherDisplay:10.37,2013-02-15 08:35:00,
2013-02-15 02:40:00,31.6,29.8,30.19,WSW,239,0.0,0.0,93,0.00,CLR,,0.00,WeatherDisplay:10.37,2013-02-15 08:40:00,
2013-02-15 02:45:00,31.5,29.7,30.19,WSW,239,0.0,0.0,93,0.00,CLR,,0.00,WeatherDisplay:10.37,2013-02-15 08:45:00,
2013-02-15 02:50:00,31.3,29.5,30.19,WSW,239,0.0,0.0,93,0.00,CLR,,0.00,WeatherDisplay:10.37,2013-02-15 08:50:00,
2013-02-15 02:55:00,31.3,29.5,30.19,WSW,239,0.0,0.0,93,0.00,CLR,,0.00,WeatherDisplay:10.37,2013-02-15 08:55:00,
2013-02-15 03:00:00,31.3,29.5,30.19,WSW,239,0.0,0.0,93,0.00,CLR,,0.00,WeatherDisplay:10.37,2013-02-15 09:00:00,
2013-02-15 03:05:00,31.2,29.4,30.19,WSW,239,0.0,0.0,93,0.00,CLR,,0.00,WeatherDisplay:10.37,2013-02-15 09:05:00,
2013-02-15 03:10:00,31.0,29.2,30.19,WSW,239,0.0,0.0,93,0.00,CLR,,0.00,WeatherDisplay:10.37,2013-02-15 09:10:00,
2013-02-15 03:15:00,30.9,29.1,30.19,WSW,239,0.0,0.0,93,0.00,CLR,,0.00,WeatherDisplay:10.37,2013-02-15 09:15:00,
2013-02-15 03:20:00,30.9,29.1,30.19,WSW,239,0.0,0.0,93,0.00,CLR,,0.00,WeatherDisplay:10.37,2013-02-15 09:20:00,
2013-02-15 03:25:00,30.7,28.9,30.19,WSW,239,0.0,0.0,93,0.00,CLR,,0.00,WeatherDisplay:10.37,2013-02-15 09:25:00,
2013-02-15 03:30:00,30.7,28.9,30.18,WSW,239,0.0,0.0,93,0.00,CLR,,0.00,WeatherDisplay:10.37,2013-02-15 09:30:00,
2013-02-15 03:36:00,30.6,28.8,30.18,WSW,239,0.0,0.0,93,0.00,CLR,,0.00,WeatherDisplay:10.37,2013-02-15 09:36:00,
2013-02-15 03:41:00,30.4,28.6,30.18,WSW,239,0.0,0.0,93,0.00,CLR,,0.00,WeatherDisplay:10.37,2013-02-15 09:41:00,
2013-02-15 03:46:00,30.3,28.5,30.19,WSW,239,0.0,0.0,93,0.00,CLR,,0.00,WeatherDisplay:10.37,2013-02-15 09:46:00,
2013-02-15 03:51:00,30.3,28.5,30.19,WSW,239,0.0,0.0,93,0.00,CLR,,0.00,WeatherDisplay:10.37,2013-02-15 09:51:00,
2013-02-15 03:56:00,30.1,28.6,30.19,WSW,239,0.0,0.0,94,0.00,CLR,,0.00,WeatherDisplay:10.37,2013-02-15 09:56:00,
2013-02-15 04:01:00,30.1,28.6,30.19,WSW,239,0.0,0.0,94,0.00,CLR,,0.00,WeatherDisplay:10.37,2013-02-15 10:01:00,
2013-02-15 04:06:00,30.3,28.8,30.20,WSW,239,0.0,0.0,94,0.00,CLR,,0.00,WeatherDisplay:10.37,2013-02-15 10:06:00,
2013-02-15 04:11:00,30.4,28.9,30.20,WSW,239,0.0,0.0,94,0.00,CLR,,0.00,WeatherDisplay:10.37,2013-02-15 10:11:00,
2013-02-15 04:16:00,30.6,29.1,30.20,WSW,239,0.0,0.0,94,0.00,CLR,,0.00,WeatherDisplay:10.37,2013-02-15 10:16:00,
2013-02-15 04:21:00,30.6,29.1,30.20,WSW,239,0.0,0.0,94,0.00,CLR,,0.00,WeatherDisplay:10.37,2013-02-15 10:21:00,
2013-02-15 04:26:00,30.6,29.1,30.20,WSW,239,0.0,0.0,94,0.00,CLR,,0.00,WeatherDisplay:10.37,2013-02-15 10:26:00,
2013-02-15 04:31:00,30.4,28.9,30.20,WSW,239,0.0,0.0,94,0.00,CLR,,0.00,WeatherDisplay:10.37,2013-02-15 10:31:00,
2013-02-15 07:43:00,33.5,32.5,30.23,ESE,119,0.0,0.0,96,0.00,CLR,,0.00,WeatherDisplay:10.37,2013-02-15 13:43:00,
2013-02-15 07:48:00,34.3,33.3,30.24,ESE,119,0.0,0.0,96,0.00,CLR,,0.00,WeatherDisplay:10.37,2013-02-15 13:48:00,
2013-02-15 07:53:00,34.9,33.9,30.24,ESE,119,0.0,0.0,96,0.00,CLR,,0.00,WeatherDisplay:10.37,2013-02-15 13:53:00,
2013-02-15 07:58:00,35.3,34.3,30.23,ESE,119,0.0,0.0,96,0.00,CLR,,0.00,WeatherDisplay:10.37,2013-02-15 13:58:00,
2013-02-15 08:03:00,36.2,35.2,30.23,ESE,119,0.0,0.0,96,0.00,CLR,,0.00,WeatherDisplay:10.37,2013-02-15 14:03:00,
2013-02-15 08:08:00,37.2,36.2,30.22,ESE,119,0.0,0.0,96,0.00,CLR,,0.00,WeatherDisplay:10.37,2013-02-15 14:08:00,
2013-02-15 08:13:00,38.6,37.6,30.22,ESE,119,0.0,0.0,96,0.00,CLR,,0.00,WeatherDisplay:10.37,2013-02-15 14:13:00,
2013-02-15 08:18:00,39.5,38.5,30.22,ESE,119,0.0,0.0,96,0.00,CLR,,0.00,WeatherDisplay:10.37,2013-02-15 14:18:00,
2013-02-15 08:23:00,39.8,38.5,30.22,ESE,119,0.0,0.0,95,0.00,CLR,,0.00,WeatherDisplay:10.37,2013-02-15 14:23:00,
2013-02-15 08:28:00,40.6,39.0,30.22,ESE,119,0.0,0.0,94,0.00,CLR,,0.00,WeatherDisplay:10.37,2013-02-15 14:28:00,
2013-02-15 08:33:00,41.3,38.9,30.23,ESE,119,1.0,0.0,91,0.00,CLR,,0.00,WeatherDisplay:10.37,2013-02-15 14:33:00,
2013-02-15 08:38:00,41.8,39.1,30.23,ESE,119,0.0,0.0,90,0.00,CLR,,0.00,WeatherDisplay:10.37,2013-02-15 14:38:00,
2013-02-15 08:43:00,42.1,38.8,30.23,ESE,119,0.0,0.0,88,0.00,CLR,,0.00,WeatherDisplay:10.37,2013-02-15 14:43:00,
2013-02-15 08:48:00,42.3,38.7,30.23,SW,231,1.1,1.1,87,0.00,CLR,,0.00,WeatherDisplay:10.37,2013-02-15 14:48:00,
2013-02-15 08:53:00,42.8,38.9,30.22,South,178,1.1,1.1,86,0.00,CLR,,0.00,WeatherDisplay:10.37,2013-02-15 14:53:00,
2013-02-15 08:58:00,43.5,39.3,30.22,South,169,1.1,0.0,85,0.00,CLR,,0.00,WeatherDisplay:10.37,2013-02-15 14:58:00,
2013-02-15 09:03:00,44.1,39.3,30.22,East,92,0.0,0.0,83,0.00,CLR,,0.00,WeatherDisplay:10.37,2013-02-15 15:03:00,
2013-02-15 09:08:00,44.2,39.1,30.22,East,93,1.1,1.1,82,0.00,CLR,,0.00,WeatherDisplay:10.37,2013-02-15 15:08:00,
2013-02-15 09:13:00,44.6,39.4,30.22,SSW,208,3.5,0.0,82,0.00,CLR,,0.00,WeatherDisplay:10.37,2013-02-15 15:13:00,
2013-02-15 09:18:00,45.2,39.4,30.22,SW,229,0.0,0.0,80,0.00,CLR,,0.00,WeatherDisplay:10.37,2013-02-15 15:18:00,
2013-02-15 09:23:00,45.5,40.0,30.22,SW,217,1.1,1.1,81,0.00,CLR,,0.00,WeatherDisplay:10.37,2013-02-15 15:23:00,
2013-02-15 09:28:00,46.2,39.4,30.22,SW,217,0.0,0.0,77,0.00,CLR,,0.00,WeatherDisplay:10.37,2013-02-15 15:28:00,
2013-02-15 09:33:00,46.7,39.2,30.22,SW,233,3.5,3.5,75,0.00,CLR,,0.00,WeatherDisplay:10.37,2013-02-15 15:33:00,
2013-02-15 09:38:00,47.3,40.1,30.22,WSW,252,2.3,2.3,76,0.00,CLR,,0.00,WeatherDisplay:10.37,2013-02-15 15:38:00,
2013-02-15 09:43:00,47.7,40.2,30.21,SW,231,1.1,1.1,75,0.00,CLR,,0.00,WeatherDisplay:10.37,2013-02-15 15:43:00,
2013-02-15 09:48:00,48.5,40.6,30.21,WSW,242,2.0,2.0,74,0.00,CLR,,0.00,WeatherDisplay:10.37,2013-02-15 15:48:00,
2013-02-15 09:53:00,49.2,40.9,30.21,SW,226,0.0,0.0,73,0.00,CLR,,0.00,WeatherDisplay:10.37,2013-02-15 15:53:00,
2013-02-15 09:58:00,49.9,40.5,30.21,SE,142,4.6,0.0,70,0.00,CLR,,0.00,WeatherDisplay:10.37,2013-02-15 15:58:00,
2013-02-15 10:03:00,50.5,41.8,30.21,SE,142,0.0,0.0,72,0.00,CLR,,0.00,WeatherDisplay:10.37,2013-02-15 16:03:00,
2013-02-15 10:08:00,51.0,41.2,30.21,WSW,243,1.1,1.1,69,0.00,CLR,,0.00,WeatherDisplay:10.37,2013-02-15 16:08:00,
2013-02-15 10:13:00,51.4,41.6,30.21,WSW,243,0.0,0.0,69,0.00,CLR,,0.00,WeatherDisplay:10.37,2013-02-15 16:13:00,
2013-02-15 10:18:00,51.7,41.5,30.21,SW,236,1.1,1.1,68,0.00,CLR,,0.00,WeatherDisplay:10.37,2013-02-15 16:18:00,
2013-02-15 10:23:00,52.2,41.6,30.21,WSW,247,3.0,3.0,67,0.00,CLR,,0.00,WeatherDisplay:10.37,2013-02-15 16:23:00,
2013-02-15 10:28:00,52.6,40.8,30.21,SE,143,2.3,2.3,64,0.00,CLR,,0.00,WeatherDisplay:10.37,2013-02-15 16:28:00,
2013-02-15 10:33:00,53.5,41.6,30.20,SE,137,1.1,0.0,64,0.00,CLR,,0.00,WeatherDisplay:10.37,2013-02-15 16:33:00,
2013-02-15 10:38:00,53.9,40.8,30.20,SSW,207,3.5,3.5,61,0.00,CLR,,0.00,WeatherDisplay:10.37,2013-02-15 16:38:00,
2013-02-15 10:43:00,54.4,41.6,30.20,SE,144,1.1,1.1,62,0.00,CLR,,0.00,WeatherDisplay:10.37,2013-02-15 16:43:00,
2013-02-15 10:48:00,55.0,41.8,30.19,NE,55,1.1,1.1,61,0.00,CLR,,0.00,WeatherDisplay:10.37,2013-02-15 16:48:00,
2013-02-15 10:53:00,55.9,42.6,30.19,NNE,28,3.5,3.5,61,0.00,CLR,,0.00,WeatherDisplay:10.37,2013-02-15 16:53:00,
2013-02-15 10:58:00,56.3,41.3,30.19,SW,223,3.5,3.5,57,0.00,CLR,,0.00,WeatherDisplay:10.37,2013-02-15 16:58:00,
2013-02-15 11:03:00,56.5,41.9,30.19,SE,140,5.8,5.8,58,0.00,CLR,,0.00,WeatherDisplay:10.37,2013-02-15 17:03:00,
2013-02-15 11:08:00,57.2,41.6,30.19,West,274,0.0,0.0,56,0.00,CLR,,0.00,WeatherDisplay:10.37,2013-02-15 17:08:00,
2013-02-15 11:13:00,57.6,41.5,30.19,West,265,3.5,3.5,55,0.00,CLR,,0.00,WeatherDisplay:10.37,2013-02-15 17:13:00,
2013-02-15 11:18:00,57.8,41.3,30.18,West,274,1.1,1.1,54,0.00,CLR,,0.00,WeatherDisplay:10.37,2013-02-15 17:18:00,
2013-02-15 11:23:00,57.2,41.2,30.18,West,261,3.5,0.0,55,0.00,CLR,,0.00,WeatherDisplay:10.37,2013-02-15 17:23:00,
2013-02-15 11:28:00,56.6,39.7,30.18,West,264,2.3,0.0,53,0.00,CLR,,0.00,WeatherDisplay:10.37,2013-02-15 17:28:00,
2013-02-15 11:33:00,56.0,40.1,30.18,NW,304,3.5,3.5,55,0.00,CLR,,0.00,WeatherDisplay:10.37,2013-02-15 17:33:00,
2013-02-15 11:38:00,55.7,39.3,30.18,North,5,10.4,10.4,54,0.00,CLR,,0.00,WeatherDisplay:10.37,2013-02-15 17:38:00,
2013-02-15 11:43:00,55.6,39.7,30.18,North,5,0.0,0.0,55,0.00,CLR,,0.00,WeatherDisplay:10.37,2013-02-15 17:43:00,
2013-02-15 11:48:00,55.6,39.2,30.18,WNW,301,3.5,3.5,54,0.00,CLR,,0.00,WeatherDisplay:10.37,2013-02-15 17:48:00,
2013-02-15 11:53:00,55.6,39.7,30.18,SW,227,7.0,7.0,55,0.00,CLR,,0.00,WeatherDisplay:10.37,2013-02-15 17:53:00,
2013-02-15 11:58:00,55.4,39.0,30.18,NW,323,3.5,3.5,54,0.00,CLR,,0.00,WeatherDisplay:10.37,2013-02-15 17:58:00,
2013-02-15 12:03:00,55.6,38.7,30.17,NNW,343,4.6,4.6,53,0.00,CLR,,0.00,WeatherDisplay:10.37,2013-02-15 18:03:00,
2013-02-15 12:08:00,55.7,39.3,30.17,North,350,0.0,0.1,54,0.00,CLR,,0.00,WeatherDisplay:10.37,2013-02-15 18:08:00,
2013-02-15 12:13:00,56.0,39.6,30.17,South,186,3.5,3.5,54,0.00,CLR,,0.00,WeatherDisplay:10.37,2013-02-15 18:13:00,
2013-02-15 12:18:00,56.3,39.4,30.17,ENE,77,1.1,0.0,53,0.00,CLR,,0.00,WeatherDisplay:10.37,2013-02-15 18:18:00,
2013-02-15 12:23:00,56.6,39.2,30.16,SW,234,2.0,2.0,52,0.00,CLR,,0.00,WeatherDisplay:10.37,2013-02-15 18:23:00,
2013-02-15 12:28:00,56.7,37.2,30.16,WNW,284,2.3,3.3,48,0.00,CLR,,0.00,WeatherDisplay:10.37,2013-02-15 18:28:00,
2013-02-15 12:33:00,57.5,36.9,30.16,SW,217,4.6,4.6,46,0.00,CLR,,0.00,WeatherDisplay:10.37,2013-02-15 18:33:00,
2013-02-15 12:38:00,58.1,38.0,30.16,SW,219,3.5,3.5,47,0.00,CLR,,0.00,WeatherDisplay:10.37,2013-02-15 18:38:00,
2013-02-15 12:43:00,58.0,38.4,30.15,West,277,4.6,4.6,48,0.00,CLR,,0.00,WeatherDisplay:10.37,2013-02-15 18:43:00,
2013-02-15 12:48:00,58.3,38.7,30.15,NNW,348,5.8,5.8,48,0.00,CLR,,0.00,WeatherDisplay:10.37,2013-02-15 18:48:00,
2013-02-15 12:53:00,59.2,38.4,30.15,North,360,1.1,1.1,46,0.00,CLR,,0.00,WeatherDisplay:10.37,2013-02-15 18:53:00,
2013-02-15 12:58:00,59.5,37.6,30.15,WNW,290,4.6,4.6,44,0.00,CLR,,0.00,WeatherDisplay:10.37,2013-02-15 18:58:00,
2013-02-15 13:03:00,60.1,37.5,30.14,NNE,22,1.1,0.0,43,0.00,CLR,,0.00,WeatherDisplay:10.37,2013-02-15 19:03:00,
2013-02-15 13:08:00,60.5,37.9,30.14,North,11,6.0,6.0,43,0.00,CLR,,0.00,WeatherDisplay:10.37,2013-02-15 19:08:00,
2013-02-15 13:13:00,59.9,37.3,30.14,West,261,3.5,3.5,43,0.00,CLR,,0.00,WeatherDisplay:10.37,2013-02-15 19:13:00,
2013-02-15 13:18:00,59.2,36.1,30.14,West,266,5.8,5.8,42,0.00,CLR,,0.00,WeatherDisplay:10.37,2013-02-15 19:18:00,
2013-02-15 13:23:00,58.4,36.6,30.14,West,275,5.8,5.8,44,0.00,CLR,,0.00,WeatherDisplay:10.37,2013-02-15 19:23:00,
2013-02-15 13:28:00,57.5,35.7,30.14,NE,36,4.0,4.0,44,0.00,CLR,,0.00,WeatherDisplay:10.37,2013-02-15 19:28:00,
2013-02-15 13:33:00,56.7,36.1,30.14,NW,313,1.1,1.1,46,0.00,CLR,,0.00,WeatherDisplay:10.37,2013-02-15 19:33:00,
2013-02-15 13:38:00,56.5,36.5,30.14,WNW,290,2.3,2.3,47,0.00,CLR,,0.00,WeatherDisplay:10.37,2013-02-15 19:38:00,
2013-02-15 13:43:00,56.2,36.2,30.14,NNE,23,3.5,3.5,47,0.00,CLR,,0.00,WeatherDisplay:10.37,2013-02-15 19:43:00,
2013-02-15 13:48:00,56.2,35.7,30.14,NW,316,3.5,3.5,46,0.00,CLR,,0.00,WeatherDisplay:10.37,2013-02-15 19:48:00,
2013-02-15 13:53:00,55.7,36.3,30.14,WNW,290,3.5,3.5,48,0.00,CLR,,0.00,WeatherDisplay:10.37,2013-02-15 19:53:00,
2013-02-15 13:58:00,55.3,37.0,30.14,NNE,22,3.5,3.5,50,0.00,CLR,,0.00,WeatherDisplay:10.37,2013-02-15 19:58:00,
2013-02-15 14:03:00,55.1,36.8,30.15,WNW,295,5.8,5.8,50,0.00,CLR,,0.00,WeatherDisplay:10.37,2013-02-15 20:03:00,
2013-02-15 14:08:00,54.7,36.9,30.15,NNE,32,3.5,3.5,51,0.00,CLR,,0.00,WeatherDisplay:10.37,2013-02-15 20:08:00,
2013-02-15 14:13:00,54.2,36.5,30.15,WNW,296,6.9,6.9,51,0.00,CLR,,0.00,WeatherDisplay:10.37,2013-02-15 20:13:00,
2013-02-15 14:18:00,54.2,37.4,30.15,WNW,290,6.9,6.9,53,0.00,CLR,,0.00,WeatherDisplay:10.37,2013-02-15 20:18:00,
2013-02-15 14:23:00,54.4,37.1,30.15,North,360,5.8,5.8,52,0.00,CLR,,0.00,WeatherDisplay:10.37,2013-02-15 20:23:00,
2013-02-15 14:28:00,54.2,37.4,30.15,WNW,301,5.8,5.8,53,0.00,CLR,,0.00,WeatherDisplay:10.37,2013-02-15 20:28:00,
2013-02-15 14:33:00,53.6,37.3,30.15,WNW,290,3.5,3.5,54,0.00,CLR,,0.00,WeatherDisplay:10.37,2013-02-15 20:33:00,
2013-02-15 14:38:00,53.5,37.3,30.15,NNE,17,6.9,6.9,54,0.00,CLR,,0.00,WeatherDisplay:10.37,2013-02-15 20:38:00,
2013-02-15 14:43:00,53.1,37.3,30.15,WNW,288,4.6,4.6,55,0.00,CLR,,0.00,WeatherDisplay:10.37,2013-02-15 20:43:00,
2013-02-15 14:48:00,52.3,36.6,30.16,SW,234,13.8,13.8,55,0.00,CLR,,0.00,WeatherDisplay:10.37,2013-02-15 20:48:00,
2013-02-15 14:53:00,51.6,36.9,30.16,NW,323,16.1,16.1,57,0.00,CLR,,0.00,WeatherDisplay:10.37,2013-02-15 20:53:00,
2013-02-15 14:58:00,51.7,36.0,30.16,NW,318,12.7,12.7,55,0.00,CLR,,0.00,WeatherDisplay:10.37,2013-02-15 20:58:00,
2013-02-15 15:03:00,51.1,36.4,30.16,NW,313,8.1,8.1,57,0.00,CLR,,0.00,WeatherDisplay:10.37,2013-02-15 21:03:00,
2013-02-15 15:08:00,50.2,35.5,30.17,NNW,342,6.0,6.0,57,0.00,CLR,,0.00,WeatherDisplay:10.37,2013-02-15 21:08:00,
2013-02-15 15:13:00,49.8,34.7,30.17,WNW,290,15.0,15.0,56,0.00,CLR,,0.00,WeatherDisplay:10.37,2013-02-15 21:13:00,
2013-02-15 15:18:00,49.4,35.2,30.17,NW,308,11.5,11.5,58,0.00,CLR,,0.00,WeatherDisplay:10.37,2013-02-15 21:18:00,
2013-02-15 15:23:00,49.1,35.4,30.17,WNW,298,9.2,9.2,59,0.00,CLR,,0.00,WeatherDisplay:10.37,2013-02-15 21:23:00,
2013-02-15 15:28:00,48.8,35.1,30.18,West,281,6.9,6.9,59,0.00,CLR,,0.00,WeatherDisplay:10.37,2013-02-15 21:28:00,
2013-02-15 15:33:00,48.8,35.9,30.18,West,271,19.6,19.6,61,0.00,CLR,,0.00,WeatherDisplay:10.37,2013-02-15 21:33:00,
2013-02-15 15:39:00,48.6,35.7,30.18,West,281,6.0,6.0,61,0.00,CLR,,0.00,WeatherDisplay:10.37,2013-02-15 21:39:00,
2013-02-15 15:44:00,48.3,35.0,30.18,WNW,300,6.9,6.9,60,0.00,CLR,,0.00,WeatherDisplay:10.37,2013-02-15 21:44:00,
2013-02-15 15:49:00,48.2,35.4,30.18,NW,325,11.5,11.5,61,0.00,CLR,,0.00,WeatherDisplay:10.37,2013-02-15 21:49:00,
2013-02-15 15:54:00,48.0,35.6,30.18,WSW,257,6.0,6.0,62,0.00,CLR,,0.00,WeatherDisplay:10.37,2013-02-15 21:54:00,
2013-02-15 15:59:00,48.0,35.2,30.18,WNW,284,4.6,4.6,61,0.00,CLR,,0.00,WeatherDisplay:10.37,2013-02-15 21:59:00,
2013-02-15 16:04:00,48.2,35.0,30.18,NNW,334,9.2,9.2,60,0.00,CLR,,0.00,WeatherDisplay:10.37,2013-02-15 22:04:00,
2013-02-15 16:09:00,48.2,35.0,30.18,WNW,286,3.5,3.5,60,0.00,CLR,,0.00,WeatherDisplay:10.37,2013-02-15 22:09:00,
2013-02-15 16:14:00,48.3,35.0,30.18,West,259,9.2,9.2,60,0.00,CLR,,0.00,WeatherDisplay:10.37,2013-02-15 22:14:00,
2013-02-15 16:19:00,48.3,35.0,30.19,NW,308,5.8,5.8,60,0.00,CLR,,0.00,WeatherDisplay:10.37,2013-02-15 22:19:00,
2013-02-15 16:24:00,48.3,35.0,30.19,NW,319,0.0,0.0,60,0.00,CLR,,0.00,WeatherDisplay:10.37,2013-02-15 22:24:00,
2013-02-15 16:29:00,48.3,35.0,30.19,NNE,32,2.3,2.3,60,0.00,CLR,,0.00,WeatherDisplay:10.37,2013-02-15 22:29:00,
2013-02-15 16:34:00,48.3,35.0,30.19,SW,225,3.5,3.5,60,0.00,CLR,,0.00,WeatherDisplay:10.37,2013-02-15 22:34:00,
2013-02-15 16:39:00,48.3,34.6,30.19,NNE,17,2.3,2.3,59,0.00,CLR,,0.00,WeatherDisplay:10.37,2013-02-15 22:39:00,
2013-02-15 16:44:00,48.3,35.5,30.19,NNE,18,0.0,0.0,61,0.00,CLR,,0.00,WeatherDisplay:10.37,2013-02-15 22:44:00,
2013-02-15 16:49:00,48.3,35.0,30.19,NNE,17,0.0,0.0,60,0.00,CLR,,0.00,WeatherDisplay:10.37,2013-02-15 22:49:00,
2013-02-15 16:54:00,48.3,35.5,30.19,NE,44,3.5,3.5,61,0.00,CLR,,0.00,WeatherDisplay:10.37,2013-02-15 22:54:00,
2013-02-15 16:59:00,48.3,35.0,30.19,North,355,4.6,4.6,60,0.00,CLR,,0.00,WeatherDisplay:10.37,2013-02-15 22:59:00,
2013-02-15 17:04:00,48.3,35.0,30.19,North,350,3.5,3.5,60,0.00,CLR,,0.00,WeatherDisplay:10.37,2013-02-15 23:04:00,
2013-02-15 17:09:00,48.2,34.5,30.19,NE,42,3.5,3.5,59,0.00,CLR,,0.00,WeatherDisplay:10.37,2013-02-15 23:09:00,
2013-02-15 17:14:00,48.2,35.0,30.19,NNE,26,2.3,2.3,60,0.00,CLR,,0.00,WeatherDisplay:10.37,2013-02-15 23:14:00,
2013-02-15 17:19:00,48.2,34.5,30.20,NNW,348,4.6,4.6,59,0.00,CLR,,0.00,WeatherDisplay:10.37,2013-02-15 23:19:00,
2013-02-15 17:24:00,48.0,34.3,30.20,WNW,296,3.5,3.5,59,0.00,CLR,,0.00,WeatherDisplay:10.37,2013-02-15 23:24:00,
2013-02-15 17:29:00,47.9,34.3,30.20,North,5,2.3,2.3,59,0.00,CLR,,0.00,WeatherDisplay:10.37,2013-02-15 23:29:00,
2013-02-15 17:34:00,47.7,34.1,30.20,NNE,27,3.5,3.5,59,0.00,CLR,,0.00,WeatherDisplay:10.37,2013-02-15 23:34:00,
2013-02-15 17:39:00,47.6,34.0,30.20,NNE,13,5.8,5.8,59,0.00,CLR,,0.00,WeatherDisplay:10.37,2013-02-15 23:39:00,
2013-02-15 17:44:00,47.4,33.8,30.21,NW,326,4.6,4.6,59,0.00,CLR,,0.00,WeatherDisplay:10.37,2013-02-15 23:44:00,
2013-02-15 17:49:00,47.3,33.7,30.20,NNE,28,4.6,4.6,59,0.00,CLR,,0.00,WeatherDisplay:10.37,2013-02-15 23:49:00,
2013-02-15 17:54:00,47.1,33.9,30.20,NW,325,2.3,2.3,60,0.00,CLR,,0.00,WeatherDisplay:10.37,2013-02-15 23:54:00,
2013-02-15 17:59:00,47.0,33.8,30.21,NW,325,1.1,0.0,60,0.00,CLR,,0.00,WeatherDisplay:10.37,2013-02-15 23:59:00,
2013-02-15 18:04:00,46.8,34.0,30.21,NE,35,0.0,0.0,61,0.00,CLR,,0.00,WeatherDisplay:10.37,2013-02-16 00:04:00,
2013-02-15 18:09:00,46.8,34.5,30.21,NE,35,0.0,0.0,62,0.00,CLR,,0.00,WeatherDisplay:10.37,2013-02-16 00:09:00,
2013-02-15 18:14:00,46.7,34.0,30.20,NNE,14,1.1,1.1,61,0.00,CLR,,0.00,WeatherDisplay:10.37,2013-02-16 00:14:00,
2013-02-15 18:19:00,46.5,33.8,30.21,NNW,340,4.6,4.6,61,0.00,CLR,,0.00,WeatherDisplay:10.37,2013-02-16 00:19:00,
2013-02-15 18:24:00,46.4,33.7,30.20,NNW,340,1.1,1.1,61,0.00,CLR,,0.00,WeatherDisplay:10.37,2013-02-16 00:24:00,
2013-02-15 18:29:00,46.2,33.9,30.20,NNE,26,3.0,3.0,62,0.00,CLR,,0.00,WeatherDisplay:10.37,2013-02-16 00:29:00,
2013-02-15 18:34:00,46.1,33.4,30.20,NNE,26,2.3,2.3,61,0.00,CLR,,0.00,WeatherDisplay:10.37,2013-02-16 00:34:00,
2013-02-15 18:39:00,46.0,32.9,30.21,NNE,30,3.5,3.5,60,0.00,CLR,,0.00,WeatherDisplay:10.37,2013-02-16 00:39:00,
2013-02-15 18:44:00,45.8,32.7,30.21,NNE,30,1.1,0.0,60,0.00,CLR,,0.00,WeatherDisplay:10.37,2013-02-16 00:44:00,
2013-02-15 18:49:00,45.7,33.0,30.21,NNE,30,2.3,2.3,61,0.00,CLR,,0.00,WeatherDisplay:10.37,2013-02-16 00:49:00,
2013-02-15 18:54:00,45.5,32.4,30.22,NNE,30,0.0,0.0,60,0.00,CLR,,0.00,WeatherDisplay:10.37,2013-02-16 00:54:00,
2013-02-15 18:59:00,45.4,32.3,30.22,NNE,30,0.0,0.0,60,0.00,CLR,,0.00,WeatherDisplay:10.37,2013-02-16 00:59:00,
2013-02-15 19:04:00,45.2,32.1,30.22,NNE,30,0.0,0.0,60,0.00,CLR,,0.00,WeatherDisplay:10.37,2013-02-16 01:04:00,
2013-02-15 19:09:00,45.1,32.4,30.22,NNE,30,0.0,0.0,61,0.00,CLR,,0.00,WeatherDisplay:10.37,2013-02-16 01:09:00,
2013-02-15 19:14:00,44.9,31.8,30.22,NNE,30,0.0,0.0,60,0.00,CLR,,0.00,WeatherDisplay:10.37,2013-02-16 01:14:00,
2013-02-15 19:19:00,44.6,31.1,30.22,NNE,30,1.1,0.0,59,0.00,CLR,,0.00,WeatherDisplay:10.37,2013-02-16 01:19:00,
2013-02-15 19:24:00,44.5,31.1,30.22,NNE,30,1.1,1.1,59,0.00,CLR,,0.00,WeatherDisplay:10.37,2013-02-16 01:24:00,
2013-02-15 19:29:00,44.2,30.3,30.22,NNE,30,0.0,0.0,58,0.00,CLR,,0.00,WeatherDisplay:10.37,2013-02-16 01:29:00,
2013-02-15 19:34:00,43.9,30.1,30.21,NNE,30,0.0,0.0,58,0.00,CLR,,0.00,WeatherDisplay:10.37,2013-02-16 01:34:00,
2013-02-15 19:39:00,43.6,30.2,30.21,NNE,30,0.0,0.0,59,0.00,CLR,,0.00,WeatherDisplay:10.37,2013-02-16 01:39:00,
2013-02-15 19:44:00,43.3,29.9,30.22,NNE,30,0.0,0.0,59,0.00,CLR,,0.00,WeatherDisplay:10.37,2013-02-16 01:44:00,
2013-02-15 19:49:00,42.9,30.0,30.22,NNE,30,0.0,0.1,60,0.00,CLR,,0.00,WeatherDisplay:10.37,2013-02-16 01:49:00,
2013-02-15 19:54:00,42.6,30.1,30.22,NNE,30,0.0,0.0,61,0.00,CLR,,0.00,WeatherDisplay:10.37,2013-02-16 01:54:00,
2013-02-15 19:59:00,42.3,30.2,30.21,NNE,30,0.0,0.0,62,0.00,CLR,,0.00,WeatherDisplay:10.37,2013-02-16 01:59:00,
2013-02-15 20:04:00,41.9,30.6,30.21,NNE,30,0.0,0.0,64,0.00,CLR,,0.00,WeatherDisplay:10.37,2013-02-16 02:04:00,
2013-02-15 20:09:00,41.6,30.3,30.21,NNE,30,0.0,0.0,64,0.00,CLR,,0.00,WeatherDisplay:10.37,2013-02-16 02:09:00,
2013-02-15 20:14:00,41.1,30.6,30.21,NNE,30,0.0,0.0,66,0.00,CLR,,0.00,WeatherDisplay:10.37,2013-02-16 02:14:00,
2013-02-15 20:19:00,40.6,30.5,30.21,NNE,30,0.0,0.0,67,0.00,CLR,,0.00,WeatherDisplay:10.37,2013-02-16 02:19:00,
2013-02-15 20:24:00,40.2,30.8,30.21,NNE,30,0.0,0.0,69,0.00,CLR,,0.00,WeatherDisplay:10.37,2013-02-16 02:24:00,
2013-02-15 20:29:00,39.8,31.2,30.22,NNE,30,0.0,0.0,71,0.00,CLR,,0.00,WeatherDisplay:10.37,2013-02-16 02:29:00,
2013-02-15 20:34:00,39.5,30.9,30.21,NNE,30,0.0,0.0,71,0.00,CLR,,0.00,WeatherDisplay:10.37,2013-02-16 02:34:00,
2013-02-15 20:39:00,39.2,30.6,30.22,NNE,30,0.0,0.0,71,0.00,CLR,,0.00,WeatherDisplay:10.37,2013-02-16 02:39:00,
2013-02-15 20:44:00,39.1,30.5,30.22,NNE,30,0.0,0.0,71,0.00,CLR,,0.00,WeatherDisplay:10.37,2013-02-16 02:44:00,
2013-02-15 20:49:00,38.9,30.6,30.22,NNE,30,0.0,0.0,72,0.00,CLR,,0.00,WeatherDisplay:10.37,2013-02-16 02:49:00,
2013-02-15 20:54:00,38.8,30.5,30.22,NNE,30,0.0,0.0,72,0.00,CLR,,0.00,WeatherDisplay:10.37,2013-02-16 02:54:00,
2013-02-15 20:59:00,38.5,30.6,30.22,NNE,30,0.0,0.0,73,0.00,CLR,,0.00,WeatherDisplay:10.37,2013-02-16 02:59:00,
2013-02-15 21:04:00,38.2,30.3,30.22,NNE,30,0.0,0.0,73,0.00,CLR,,0.00,WeatherDisplay:10.37,2013-02-16 03:04:00,
2013-02-15 21:09:00,38.0,30.4,30.22,NNE,30,1.1,0.0,74,0.00,CLR,,0.00,WeatherDisplay:10.37,2013-02-16 03:09:00,
2013-02-15 21:14:00,37.8,29.9,30.22,NNE,30,0.0,0.0,73,0.00,CLR,,0.00,WeatherDisplay:10.37,2013-02-16 03:14:00,
2013-02-15 21:19:00,37.6,29.7,30.22,NNE,30,0.0,0.1,73,0.00,CLR,,0.00,WeatherDisplay:10.37,2013-02-16 03:19:00,
2013-02-15 21:24:00,37.6,28.7,30.22,NNE,30,2.3,2.3,70,0.00,CLR,,0.00,WeatherDisplay:10.37,2013-02-16 03:24:00,
2013-02-15 21:29:00,37.9,29.0,30.22,NNE,30,0.0,0.0,70,0.00,CLR,,0.00,WeatherDisplay:10.37,2013-02-16 03:29:00,
2013-02-15 21:34:00,38.0,28.7,30.22,NNE,30,2.0,2.0,69,0.00,CLR,,0.00,WeatherDisplay:10.37,2013-02-16 03:34:00,
2013-02-15 21:39:00,38.3,29.4,30.22,NNE,30,1.1,0.0,70,0.00,CLR,,0.00,WeatherDisplay:10.37,2013-02-16 03:39:00,
2013-02-15 21:44:00,38.0,29.4,30.22,NNE,30,0.0,0.0,71,0.00,CLR,,0.00,WeatherDisplay:10.37,2013-02-16 03:44:00,
2013-02-15 21:49:00,37.8,29.9,30.22,NNE,30,0.0,0.0,73,0.00,CLR,,0.00,WeatherDisplay:10.37,2013-02-16 03:49:00,
2013-02-15 21:54:00,38.0,29.1,30.21,ENE,63,1.1,1.1,70,0.00,CLR,,0.00,WeatherDisplay:10.37,2013-02-16 03:54:00,
2013-02-15 21:59:00,38.2,28.2,30.21,North,351,2.3,0.0,67,0.00,CLR,,0.00,WeatherDisplay:10.37,2013-02-16 03:59:00,
2013-02-15 22:04:00,38.5,28.5,30.21,North,351,1.1,1.1,67,0.00,CLR,,0.00,WeatherDisplay:10.37,2013-02-16 04:04:00,
2013-02-15 22:09:00,38.8,28.4,30.20,NNE,22,1.0,0.0,66,0.00,CLR,,0.00,WeatherDisplay:10.37,2013-02-16 04:09:00,
2013-02-15 22:14:00,39.1,28.3,30.21,NNE,22,0.0,0.0,65,0.00,CLR,,0.00,WeatherDisplay:10.37,2013-02-16 04:14:00,
2013-02-15 22:19:00,39.1,28.3,30.21,NNE,22,0.0,0.0,65,0.00,CLR,,0.00,WeatherDisplay:10.37,2013-02-16 04:19:00,
2013-02-15 22:24:00,39.2,28.4,30.21,ENE,74,0.0,0.4,65,0.00,CLR,,0.00,WeatherDisplay:10.37,2013-02-16 04:24:00,
2013-02-15 22:29:00,39.2,28.8,30.21,ENE,74,0.0,0.0,66,0.00,CLR,,0.00,WeatherDisplay:10.37,2013-02-16 04:29:00,
2013-02-15 22:34:00,38.8,28.8,30.21,ENE,74,0.0,0.0,67,0.00,CLR,,0.00,WeatherDisplay:10.37,2013-02-16 04:34:00,
2013-02-15 22:39:00,38.6,28.6,30.21,ENE,74,0.0,0.0,67,0.00,CLR,,0.00,WeatherDisplay:10.37,2013-02-16 04:39:00,
2013-02-15 22:44:00,38.6,28.2,30.21,ENE,74,1.1,0.0,66,0.00,CLR,,0.00,WeatherDisplay:10.37,2013-02-16 04:44:00,
2013-02-15 22:49:00,38.8,28.4,30.20,ENE,74,1.1,0.0,66,0.00,CLR,,0.00,WeatherDisplay:10.37,2013-02-16 04:49:00,
2013-02-15 22:54:00,38.8,28.0,30.20,ENE,74,1.1,1.1,65,0.00,CLR,,0.00,WeatherDisplay:10.37,2013-02-16 04:54:00,
2013-02-15 22:59:00,38.8,28.0,30.20,ENE,74,0.0,0.0,65,0.00,CLR,,0.00,WeatherDisplay:10.37,2013-02-16 04:59:00,
2013-02-15 23:00:00,38.8,28.0,30.20,ENE,74,1.1,0.0,65,0.00,CLR,,0.00,WeatherDisplay:10.37,2013-02-16 05:00:00,
2013-02-15 23:01:00,38.8,28.0,30.20,ENE,74,0.0,0.0,65,0.00,CLR,,0.00,WeatherDisplay:10.37,2013-02-16 05:01:00,
2013-02-15 23:03:00,38.6,28.2,30.20,ENE,74,0.0,0.0,66,0.00,CLR,,0.00,WeatherDisplay:10.37,2013-02-16 05:03:00,
2013-02-15 23:08:00,38.6,27.8,30.21,ENE,74,1.1,0.0,65,0.00,CLR,,0.00,WeatherDisplay:10.37,2013-02-16 05:08:00,
2013-02-15 23:13:00,38.6,27.8,30.21,ENE,74,0.0,0.0,65,0.00,CLR,,0.00,WeatherDisplay:10.37,2013-02-16 05:13:00,
2013-02-15 23:18:00,38.8,28.0,30.20,ENE,74,1.1,0.0,65,0.00,CLR,,0.00,WeatherDisplay:10.37,2013-02-16 05:18:00,
2013-02-15 23:23:00,38.8,28.0,30.20,ENE,74,1.1,0.0,65,0.00,CLR,,0.00,WeatherDisplay:10.37,2013-02-16 05:23:00,
2013-02-15 23:28:00,38.8,28.0,30.20,ENE,74,0.0,0.0,65,0.00,CLR,,0.00,WeatherDisplay:10.37,2013-02-16 05:28:00,
2013-02-15 23:33:00,38.9,28.1,30.20,ENE,74,0.0,0.0,65,0.00,CLR,,0.00,WeatherDisplay:10.37,2013-02-16 05:33:00,
2013-02-15 23:38:00,38.9,27.8,30.20,ENE,74,1.1,1.1,64,0.00,CLR,,0.00,WeatherDisplay:10.37,2013-02-16 05:38:00,
2013-02-15 23:43:00,38.9,27.8,30.20,ENE,74,0.0,0.0,64,0.00,CLR,,0.00,WeatherDisplay:10.37,2013-02-16 05:43:00,
2013-02-15 23:48:00,38.8,27.7,30.20,ENE,74,0.0,0.0,64,0.00,CLR,,0.00,WeatherDisplay:10.37,2013-02-16 05:48:00,
2013-02-15 23:53:00,38.8,27.7,30.19,ENE,74,0.0,0.0,64,0.00,CLR,,0.00,WeatherDisplay:10.37,2013-02-16 05:53:00,
2013-02-15 23:58:00,38.8,27.3,30.19,ENE,73,2.3,2.3,63,0.00,CLR,,0.00,WeatherDisplay:10.37,2013-02-16 05:58:00,